sensor_id;sensor_type;location;lat;lon;timestamp;P1;durP1;ratioP1;P2;durP2;ratioP2
78752;SDS011;68072;51.688;7.842;2024-03-08T00:02:05;17.57;;;8.57;;
78752;SDS011;68072;51.688;7.842;2024-03-08T00:04:30;20.97;;;9.90;;
78752;SDS011;68072;51.688;7.842;2024-03-08T00:06:56;20.43;;;10.47;;
78752;SDS011;68072;51.688;7.842;2024-03-08T00:09:21;16.17;;;9.10;;
78752;SDS011;68072;51.688;7.842;2024-03-08T00:11:46;22.17;;;8.83;;
78752;SDS011;68072;51.688;7.842;2024-03-08T00:14:12;22.27;;;10.48;;
78752;SDS011;68072;51.688;7.842;2024-03-08T00:16:37;19.93;;;9.33;;
78752;SDS011;68072;51.688;7.842;2024-03-08T00:19:03;21.08;;;9.52;;
78752;SDS011;68072;51.688;7.842;2024-03-08T00:21:28;17.20;;;9.17;;
78752;SDS011;68072;51.688;7.842;2024-03-08T00:23:54;18.20;;;8.60;;
78752;SDS011;68072;51.688;7.842;2024-03-08T00:26:20;22.67;;;10.10;;
78752;SDS011;68072;51.688;7.842;2024-03-08T00:28:47;20.00;;;9.80;;
78752;SDS011;68072;51.688;7.842;2024-03-08T00:31:13;18.08;;;9.18;;
78752;SDS011;68072;51.688;7.842;2024-03-08T00:33:39;20.40;;;9.80;;
78752;SDS011;68072;51.688;7.842;2024-03-08T00:36:04;14.77;;;9.07;;
78752;SDS011;68072;51.688;7.842;2024-03-08T00:38:29;18.55;;;10.48;;
78752;SDS011;68072;51.688;7.842;2024-03-08T00:40:55;21.13;;;11.23;;
78752;SDS011;68072;51.688;7.842;2024-03-08T00:43:21;24.45;;;10.63;;
78752;SDS011;68072;51.688;7.842;2024-03-08T00:45:47;18.07;;;10.13;;
78752;SDS011;68072;51.688;7.842;2024-03-08T00:48:12;17.00;;;9.97;;
78752;SDS011;68072;51.688;7.842;2024-03-08T00:50:37;22.27;;;10.10;;
78752;SDS011;68072;51.688;7.842;2024-03-08T00:53:02;17.50;;;10.27;;
78752;SDS011;68072;51.688;7.842;2024-03-08T00:57:54;18.00;;;10.05;;
78752;SDS011;68072;51.688;7.842;2024-03-08T01:00:20;18.45;;;9.10;;
78752;SDS011;68072;51.688;7.842;2024-03-08T01:02:45;20.90;;;11.20;;
78752;SDS011;68072;51.688;7.842;2024-03-08T01:05:10;19.27;;;9.57;;
78752;SDS011;68072;51.688;7.842;2024-03-08T01:07:36;15.10;;;8.80;;
78752;SDS011;68072;51.688;7.842;2024-03-08T01:10:04;14.77;;;8.87;;
78752;SDS011;68072;51.688;7.842;2024-03-08T01:12:34;18.02;;;10.63;;
78752;SDS011;68072;51.688;7.842;2024-03-08T01:14:59;21.17;;;10.90;;
78752;SDS011;68072;51.688;7.842;2024-03-08T01:17:25;22.27;;;10.80;;
78752;SDS011;68072;51.688;7.842;2024-03-08T01:19:51;19.98;;;9.18;;
78752;SDS011;68072;51.688;7.842;2024-03-08T01:22:16;19.47;;;9.73;;
78752;SDS011;68072;51.688;7.842;2024-03-08T01:24:41;17.00;;;9.33;;
78752;SDS011;68072;51.688;7.842;2024-03-08T01:27:06;18.73;;;9.27;;
78752;SDS011;68072;51.688;7.842;2024-03-08T01:29:34;22.65;;;11.30;;
78752;SDS011;68072;51.688;7.842;2024-03-08T01:31:59;18.50;;;10.70;;
78752;SDS011;68072;51.688;7.842;2024-03-08T01:34:26;18.25;;;8.95;;
78752;SDS011;68072;51.688;7.842;2024-03-08T01:39:18;19.23;;;8.95;;
78752;SDS011;68072;51.688;7.842;2024-03-08T01:41:43;20.67;;;10.00;;
78752;SDS011;68072;51.688;7.842;2024-03-08T01:44:09;18.92;;;9.52;;
78752;SDS011;68072;51.688;7.842;2024-03-08T01:46:35;19.27;;;10.15;;
78752;SDS011;68072;51.688;7.842;2024-03-08T01:49:00;15.20;;;8.17;;
78752;SDS011;68072;51.688;7.842;2024-03-08T01:51:26;17.27;;;8.68;;
78752;SDS011;68072;51.688;7.842;2024-03-08T01:53:53;21.90;;;9.85;;
78752;SDS011;68072;51.688;7.842;2024-03-08T01:56:20;19.05;;;9.35;;
78752;SDS011;68072;51.688;7.842;2024-03-08T01:58:46;21.33;;;10.02;;
78752;SDS011;68072;51.688;7.842;2024-03-08T02:01:15;18.10;;;10.00;;
78752;SDS011;68072;51.688;7.842;2024-03-08T02:03:41;20.30;;;10.18;;
78752;SDS011;68072;51.688;7.842;2024-03-08T02:06:09;17.80;;;9.20;;
78752;SDS011;68072;51.688;7.842;2024-03-08T02:08:35;20.38;;;10.77;;
78752;SDS011;68072;51.688;7.842;2024-03-08T02:11:00;18.98;;;10.77;;
78752;SDS011;68072;51.688;7.842;2024-03-08T02:13:27;19.08;;;9.57;;
78752;SDS011;68072;51.688;7.842;2024-03-08T02:15:53;23.65;;;11.00;;
78752;SDS011;68072;51.688;7.842;2024-03-08T02:18:19;21.25;;;10.95;;
78752;SDS011;68072;51.688;7.842;2024-03-08T02:20:49;20.25;;;10.27;;
78752;SDS011;68072;51.688;7.842;2024-03-08T02:23:14;21.42;;;10.80;;
78752;SDS011;68072;51.688;7.842;2024-03-08T02:25:39;18.50;;;10.77;;
78752;SDS011;68072;51.688;7.842;2024-03-08T02:28:05;19.08;;;9.80;;
78752;SDS011;68072;51.688;7.842;2024-03-08T02:30:30;20.17;;;10.83;;
78752;SDS011;68072;51.688;7.842;2024-03-08T02:32:55;16.43;;;9.60;;
78752;SDS011;68072;51.688;7.842;2024-03-08T02:35:21;20.40;;;10.47;;
78752;SDS011;68072;51.688;7.842;2024-03-08T02:37:46;19.00;;;9.77;;
78752;SDS011;68072;51.688;7.842;2024-03-08T02:40:13;18.02;;;10.30;;
78752;SDS011;68072;51.688;7.842;2024-03-08T02:42:38;16.80;;;9.80;;
78752;SDS011;68072;51.688;7.842;2024-03-08T02:45:03;19.17;;;10.37;;
78752;SDS011;68072;51.688;7.842;2024-03-08T02:47:30;20.27;;;9.98;;
78752;SDS011;68072;51.688;7.842;2024-03-08T02:49:56;19.27;;;10.32;;
78752;SDS011;68072;51.688;7.842;2024-03-08T02:52:21;16.10;;;9.23;;
78752;SDS011;68072;51.688;7.842;2024-03-08T02:54:47;22.00;;;11.40;;
78752;SDS011;68072;51.688;7.842;2024-03-08T02:57:12;24.60;;;10.65;;
78752;SDS011;68072;51.688;7.842;2024-03-08T02:59:40;22.60;;;10.60;;
78752;SDS011;68072;51.688;7.842;2024-03-08T03:02:05;20.95;;;9.77;;
78752;SDS011;68072;51.688;7.842;2024-03-08T03:04:32;19.67;;;10.57;;
78752;SDS011;68072;51.688;7.842;2024-03-08T03:06:59;20.35;;;10.80;;
78752;SDS011;68072;51.688;7.842;2024-03-08T03:09:25;29.65;;;11.93;;
78752;SDS011;68072;51.688;7.842;2024-03-08T03:11:55;27.92;;;12.02;;
78752;SDS011;68072;51.688;7.842;2024-03-08T03:14:21;18.58;;;10.18;;
78752;SDS011;68072;51.688;7.842;2024-03-08T03:16:46;19.77;;;10.07;;
78752;SDS011;68072;51.688;7.842;2024-03-08T03:19:12;26.60;;;11.27;;
78752;SDS011;68072;51.688;7.842;2024-03-08T03:21:37;20.88;;;10.35;;
78752;SDS011;68072;51.688;7.842;2024-03-08T03:24:03;25.75;;;13.30;;
78752;SDS011;68072;51.688;7.842;2024-03-08T03:26:29;24.45;;;10.00;;
78752;SDS011;68072;51.688;7.842;2024-03-08T03:28:56;25.95;;;11.63;;
78752;SDS011;68072;51.688;7.842;2024-03-08T03:31:22;22.60;;;10.77;;
78752;SDS011;68072;51.688;7.842;2024-03-08T03:33:49;22.10;;;10.70;;
78752;SDS011;68072;51.688;7.842;2024-03-08T03:36:16;25.88;;;12.02;;
78752;SDS011;68072;51.688;7.842;2024-03-08T03:38:41;19.17;;;10.13;;
78752;SDS011;68072;51.688;7.842;2024-03-08T03:41:07;22.17;;;10.23;;
78752;SDS011;68072;51.688;7.842;2024-03-08T03:43:35;25.20;;;11.73;;
78752;SDS011;68072;51.688;7.842;2024-03-08T03:46:02;22.00;;;10.98;;
78752;SDS011;68072;51.688;7.842;2024-03-08T03:48:30;22.83;;;10.48;;
78752;SDS011;68072;51.688;7.842;2024-03-08T03:50:57;18.45;;;10.68;;
78752;SDS011;68072;51.688;7.842;2024-03-08T03:53:22;23.98;;;11.68;;
78752;SDS011;68072;51.688;7.842;2024-03-08T03:55:47;21.40;;;11.10;;
78752;SDS011;68072;51.688;7.842;2024-03-08T03:58:13;26.87;;;13.90;;
78752;SDS011;68072;51.688;7.842;2024-03-08T04:00:38;22.70;;;10.40;;
78752;SDS011;68072;51.688;7.842;2024-03-08T04:03:03;22.45;;;11.50;;
78752;SDS011;68072;51.688;7.842;2024-03-08T04:05:29;25.60;;;11.77;;
78752;SDS011;68072;51.688;7.842;2024-03-08T04:07:54;18.77;;;10.23;;
78752;SDS011;68072;51.688;7.842;2024-03-08T04:10:19;23.53;;;11.13;;
78752;SDS011;68072;51.688;7.842;2024-03-08T04:12:45;22.63;;;10.50;;
78752;SDS011;68072;51.688;7.842;2024-03-08T04:15:10;23.33;;;11.60;;
78752;SDS011;68072;51.688;7.842;2024-03-08T04:17:36;22.17;;;10.83;;
78752;SDS011;68072;51.688;7.842;2024-03-08T04:20:02;18.90;;;10.05;;
78752;SDS011;68072;51.688;7.842;2024-03-08T04:22:34;22.42;;;11.02;;
78752;SDS011;68072;51.688;7.842;2024-03-08T04:25:00;16.20;;;9.73;;
78752;SDS011;68072;51.688;7.842;2024-03-08T04:27:25;17.00;;;9.23;;
78752;SDS011;68072;51.688;7.842;2024-03-08T04:29:50;25.20;;;12.07;;
78752;SDS011;68072;51.688;7.842;2024-03-08T04:32:16;23.17;;;10.93;;
78752;SDS011;68072;51.688;7.842;2024-03-08T04:34:42;25.48;;;12.55;;
78752;SDS011;68072;51.688;7.842;2024-03-08T04:37:07;22.65;;;10.73;;
78752;SDS011;68072;51.688;7.842;2024-03-08T04:39:35;22.85;;;11.27;;
78752;SDS011;68072;51.688;7.842;2024-03-08T04:42:02;23.27;;;11.07;;
78752;SDS011;68072;51.688;7.842;2024-03-08T04:44:31;20.15;;;9.60;;
78752;SDS011;68072;51.688;7.842;2024-03-08T04:46:58;27.63;;;13.00;;
78752;SDS011;68072;51.688;7.842;2024-03-08T04:49:23;24.10;;;11.13;;
78752;SDS011;68072;51.688;7.842;2024-03-08T04:51:49;22.47;;;11.00;;
78752;SDS011;68072;51.688;7.842;2024-03-08T04:54:14;24.73;;;9.80;;
78752;SDS011;68072;51.688;7.842;2024-03-08T04:56:39;22.77;;;10.47;;
78752;SDS011;68072;51.688;7.842;2024-03-08T04:59:04;21.13;;;9.80;;
78752;SDS011;68072;51.688;7.842;2024-03-08T05:01:33;23.05;;;11.10;;
78752;SDS011;68072;51.688;7.842;2024-03-08T05:03:59;24.83;;;11.73;;
78752;SDS011;68072;51.688;7.842;2024-03-08T05:06:24;27.80;;;11.23;;
78752;SDS011;68072;51.688;7.842;2024-03-08T05:08:49;21.83;;;11.10;;
78752;SDS011;68072;51.688;7.842;2024-03-08T05:11:14;21.63;;;10.57;;
78752;SDS011;68072;51.688;7.842;2024-03-08T05:13:40;25.57;;;13.13;;
78752;SDS011;68072;51.688;7.842;2024-03-08T05:16:05;25.02;;;11.88;;
78752;SDS011;68072;51.688;7.842;2024-03-08T05:18:32;28.08;;;14.27;;
78752;SDS011;68072;51.688;7.842;2024-03-08T05:20:57;20.23;;;10.85;;
78752;SDS011;68072;51.688;7.842;2024-03-08T05:23:23;22.53;;;10.90;;
78752;SDS011;68072;51.688;7.842;2024-03-08T05:25:48;28.37;;;12.47;;
78752;SDS011;68072;51.688;7.842;2024-03-08T05:28:13;26.90;;;12.13;;
78752;SDS011;68072;51.688;7.842;2024-03-08T05:30:38;19.60;;;9.70;;
78752;SDS011;68072;51.688;7.842;2024-03-08T05:33:05;26.13;;;12.20;;
78752;SDS011;68072;51.688;7.842;2024-03-08T05:35:30;24.98;;;12.30;;
78752;SDS011;68072;51.688;7.842;2024-03-08T05:37:57;22.25;;;11.38;;
78752;SDS011;68072;51.688;7.842;2024-03-08T05:40:23;27.17;;;12.50;;
78752;SDS011;68072;51.688;7.842;2024-03-08T05:42:48;24.17;;;12.50;;
78752;SDS011;68072;51.688;7.842;2024-03-08T05:45:13;25.93;;;12.70;;
78752;SDS011;68072;51.688;7.842;2024-03-08T05:47:40;21.45;;;11.90;;
78752;SDS011;68072;51.688;7.842;2024-03-08T05:50:05;24.37;;;12.13;;
78752;SDS011;68072;51.688;7.842;2024-03-08T05:52:32;23.35;;;12.27;;
78752;SDS011;68072;51.688;7.842;2024-03-08T05:54:58;26.98;;;11.95;;
78752;SDS011;68072;51.688;7.842;2024-03-08T05:57:23;26.70;;;12.07;;
78752;SDS011;68072;51.688;7.842;2024-03-08T05:59:49;24.98;;;12.77;;
78752;SDS011;68072;51.688;7.842;2024-03-08T06:02:14;28.20;;;13.07;;
78752;SDS011;68072;51.688;7.842;2024-03-08T06:04:44;30.98;;;12.68;;
78752;SDS011;68072;51.688;7.842;2024-03-08T06:07:09;25.08;;;11.30;;
78752;SDS011;68072;51.688;7.842;2024-03-08T06:09:37;25.88;;;13.35;;
78752;SDS011;68072;51.688;7.842;2024-03-08T06:12:02;22.97;;;10.87;;
78752;SDS011;68072;51.688;7.842;2024-03-08T06:14:29;26.88;;;10.48;;
78752;SDS011;68072;51.688;7.842;2024-03-08T06:16:55;29.70;;;14.20;;
78752;SDS011;68072;51.688;7.842;2024-03-08T06:19:20;27.88;;;12.50;;
78752;SDS011;68072;51.688;7.842;2024-03-08T06:21:45;30.23;;;13.00;;
78752;SDS011;68072;51.688;7.842;2024-03-08T06:24:11;25.55;;;12.27;;
78752;SDS011;68072;51.688;7.842;2024-03-08T06:26:36;21.47;;;12.43;;
78752;SDS011;68072;51.688;7.842;2024-03-08T06:29:02;30.55;;;12.98;;
78752;SDS011;68072;51.688;7.842;2024-03-08T06:31:28;22.97;;;12.23;;
78752;SDS011;68072;51.688;7.842;2024-03-08T06:33:53;23.83;;;12.20;;
78752;SDS011;68072;51.688;7.842;2024-03-08T06:36:22;28.48;;;12.25;;
78752;SDS011;68072;51.688;7.842;2024-03-08T06:38:48;26.53;;;11.83;;
78752;SDS011;68072;51.688;7.842;2024-03-08T06:41:14;27.80;;;13.18;;
78752;SDS011;68072;51.688;7.842;2024-03-08T06:46:05;28.98;;;12.18;;
78752;SDS011;68072;51.688;7.842;2024-03-08T06:48:31;26.40;;;11.57;;
78752;SDS011;68072;51.688;7.842;2024-03-08T06:50:57;21.70;;;11.85;;
78752;SDS011;68072;51.688;7.842;2024-03-08T06:53:22;27.67;;;13.53;;
78752;SDS011;68072;51.688;7.842;2024-03-08T06:55:47;24.47;;;11.77;;
78752;SDS011;68072;51.688;7.842;2024-03-08T06:58:12;25.13;;;11.67;;
78752;SDS011;68072;51.688;7.842;2024-03-08T07:00:38;26.03;;;14.07;;
78752;SDS011;68072;51.688;7.842;2024-03-08T07:03:03;27.47;;;13.30;;
78752;SDS011;68072;51.688;7.842;2024-03-08T07:05:29;25.35;;;12.73;;
78752;SDS011;68072;51.688;7.842;2024-03-08T07:07:54;31.10;;;12.70;;
78752;SDS011;68072;51.688;7.842;2024-03-08T07:10:20;27.77;;;13.63;;
78752;SDS011;68072;51.688;7.842;2024-03-08T07:12:45;27.38;;;12.93;;
78752;SDS011;68072;51.688;7.842;2024-03-08T07:15:11;18.77;;;9.95;;
78752;SDS011;68072;51.688;7.842;2024-03-08T07:17:39;27.02;;;12.98;;
78752;SDS011;68072;51.688;7.842;2024-03-08T07:20:04;28.98;;;13.65;;
78752;SDS011;68072;51.688;7.842;2024-03-08T07:22:35;30.80;;;13.05;;
78752;SDS011;68072;51.688;7.842;2024-03-08T07:25:02;25.48;;;12.25;;
78752;SDS011;68072;51.688;7.842;2024-03-08T07:27:33;29.70;;;14.82;;
78752;SDS011;68072;51.688;7.842;2024-03-08T07:29:59;27.08;;;13.45;;
78752;SDS011;68072;51.688;7.842;2024-03-08T07:32:25;23.60;;;11.82;;
78752;SDS011;68072;51.688;7.842;2024-03-08T07:34:53;28.13;;;12.60;;
78752;SDS011;68072;51.688;7.842;2024-03-08T07:37:20;23.02;;;12.80;;
78752;SDS011;68072;51.688;7.842;2024-03-08T07:39:46;27.83;;;13.32;;
78752;SDS011;68072;51.688;7.842;2024-03-08T07:42:11;25.02;;;12.90;;
78752;SDS011;68072;51.688;7.842;2024-03-08T07:44:37;28.17;;;12.00;;
78752;SDS011;68072;51.688;7.842;2024-03-08T07:47:02;25.30;;;11.52;;
78752;SDS011;68072;51.688;7.842;2024-03-08T07:49:28;21.70;;;12.20;;
78752;SDS011;68072;51.688;7.842;2024-03-08T07:51:54;26.02;;;12.32;;
78752;SDS011;68072;51.688;7.842;2024-03-08T07:54:19;25.70;;;11.47;;
78752;SDS011;68072;51.688;7.842;2024-03-08T07:56:45;22.63;;;12.57;;
78752;SDS011;68072;51.688;7.842;2024-03-08T07:59:10;27.63;;;12.97;;
78752;SDS011;68072;51.688;7.842;2024-03-08T08:01:37;24.23;;;12.23;;
78752;SDS011;68072;51.688;7.842;2024-03-08T08:04:02;19.90;;;10.85;;
78752;SDS011;68072;51.688;7.842;2024-03-08T08:06:27;25.83;;;12.07;;
78752;SDS011;68072;51.688;7.842;2024-03-08T08:08:53;22.38;;;10.82;;
78752;SDS011;68072;51.688;7.842;2024-03-08T08:11:18;22.90;;;11.57;;
78752;SDS011;68072;51.688;7.842;2024-03-08T08:13:45;25.45;;;12.55;;
78752;SDS011;68072;51.688;7.842;2024-03-08T08:16:10;29.00;;;13.00;;
78752;SDS011;68072;51.688;7.842;2024-03-08T08:18:39;21.63;;;11.50;;
78752;SDS011;68072;51.688;7.842;2024-03-08T08:21:07;23.65;;;11.35;;
78752;SDS011;68072;51.688;7.842;2024-03-08T08:23:34;24.00;;;12.73;;
78752;SDS011;68072;51.688;7.842;2024-03-08T08:26:00;24.10;;;11.77;;
78752;SDS011;68072;51.688;7.842;2024-03-08T08:28:28;26.80;;;12.80;;
78752;SDS011;68072;51.688;7.842;2024-03-08T08:30:54;26.13;;;11.90;;
78752;SDS011;68072;51.688;7.842;2024-03-08T08:35:44;25.80;;;12.80;;
78752;SDS011;68072;51.688;7.842;2024-03-08T08:38:10;29.08;;;13.88;;
78752;SDS011;68072;51.688;7.842;2024-03-08T08:40:36;29.50;;;12.65;;
78752;SDS011;68072;51.688;7.842;2024-03-08T08:43:02;25.40;;;11.18;;
78752;SDS011;68072;51.688;7.842;2024-03-08T08:45:33;20.63;;;10.18;;
78752;SDS011;68072;51.688;7.842;2024-03-08T08:47:59;30.47;;;13.10;;
78752;SDS011;68072;51.688;7.842;2024-03-08T08:50:25;23.65;;;11.30;;
78752;SDS011;68072;51.688;7.842;2024-03-08T08:52:50;25.33;;;11.35;;
78752;SDS011;68072;51.688;7.842;2024-03-08T08:55:15;29.10;;;14.30;;
78752;SDS011;68072;51.688;7.842;2024-03-08T08:57:46;23.98;;;11.80;;
78752;SDS011;68072;51.688;7.842;2024-03-08T09:00:11;21.67;;;11.57;;
78752;SDS011;68072;51.688;7.842;2024-03-08T09:02:40;23.38;;;12.63;;
78752;SDS011;68072;51.688;7.842;2024-03-08T09:05:06;24.92;;;12.48;;
78752;SDS011;68072;51.688;7.842;2024-03-08T09:07:33;25.50;;;13.25;;
78752;SDS011;68072;51.688;7.842;2024-03-08T09:09:59;25.42;;;13.25;;
78752;SDS011;68072;51.688;7.842;2024-03-08T09:12:24;21.15;;;11.52;;
78752;SDS011;68072;51.688;7.842;2024-03-08T09:14:50;25.73;;;12.50;;
78752;SDS011;68072;51.688;7.842;2024-03-08T09:17:15;24.48;;;13.35;;
78752;SDS011;68072;51.688;7.842;2024-03-08T09:19:49;26.95;;;13.15;;
78752;SDS011;68072;51.688;7.842;2024-03-08T09:22:15;28.35;;;12.68;;
78752;SDS011;68072;51.688;7.842;2024-03-08T09:24:41;28.25;;;14.02;;
78752;SDS011;68072;51.688;7.842;2024-03-08T09:27:08;26.58;;;12.52;;
78752;SDS011;68072;51.688;7.842;2024-03-08T09:29:38;24.55;;;13.02;;
78752;SDS011;68072;51.688;7.842;2024-03-08T09:32:04;23.35;;;11.77;;
78752;SDS011;68072;51.688;7.842;2024-03-08T09:34:29;19.70;;;11.18;;
78752;SDS011;68072;51.688;7.842;2024-03-08T09:36:55;20.17;;;11.80;;
78752;SDS011;68072;51.688;7.842;2024-03-08T09:39:21;18.98;;;10.15;;
78752;SDS011;68072;51.688;7.842;2024-03-08T09:41:46;21.42;;;10.23;;
78752;SDS011;68072;51.688;7.842;2024-03-08T09:44:18;26.58;;;12.95;;
78752;SDS011;68072;51.688;7.842;2024-03-08T09:46:47;20.20;;;9.35;;
78752;SDS011;68072;51.688;7.842;2024-03-08T09:49:13;22.77;;;12.02;;
78752;SDS011;68072;51.688;7.842;2024-03-08T09:51:38;24.33;;;11.50;;
78752;SDS011;68072;51.688;7.842;2024-03-08T09:54:05;23.10;;;11.02;;
78752;SDS011;68072;51.688;7.842;2024-03-08T09:56:34;19.23;;;10.15;;
78752;SDS011;68072;51.688;7.842;2024-03-08T09:59:02;20.85;;;11.25;;
78752;SDS011;68072;51.688;7.842;2024-03-08T10:01:50;22.05;;;10.23;;
78752;SDS011;68072;51.688;7.842;2024-03-08T10:04:17;22.52;;;10.85;;
78752;SDS011;68072;51.688;7.842;2024-03-08T10:06:45;21.02;;;10.73;;
78752;SDS011;68072;51.688;7.842;2024-03-08T10:09:15;17.00;;;9.10;;
78752;SDS011;68072;51.688;7.842;2024-03-08T10:11:47;20.70;;;10.45;;
78752;SDS011;68072;51.688;7.842;2024-03-08T10:14:16;18.58;;;9.75;;
78752;SDS011;68072;51.688;7.842;2024-03-08T10:16:42;17.95;;;10.32;;
78752;SDS011;68072;51.688;7.842;2024-03-08T10:19:07;17.80;;;10.10;;
78752;SDS011;68072;51.688;7.842;2024-03-08T10:21:35;22.05;;;11.05;;
78752;SDS011;68072;51.688;7.842;2024-03-08T10:24:03;20.25;;;10.10;;
78752;SDS011;68072;51.688;7.842;2024-03-08T10:26:29;19.85;;;9.93;;
78752;SDS011;68072;51.688;7.842;2024-03-08T10:28:58;22.02;;;11.13;;
78752;SDS011;68072;51.688;7.842;2024-03-08T10:31:55;21.45;;;10.10;;
78752;SDS011;68072;51.688;7.842;2024-03-08T10:34:24;23.27;;;10.25;;
78752;SDS011;68072;51.688;7.842;2024-03-08T10:39:25;22.73;;;10.60;;
78752;SDS011;68072;51.688;7.842;2024-03-08T10:42:11;19.08;;;10.18;;
78752;SDS011;68072;51.688;7.842;2024-03-08T10:47:30;15.48;;;9.18;;
78752;SDS011;68072;51.688;7.842;2024-03-08T10:50:10;22.60;;;9.88;;
78752;SDS011;68072;51.688;7.842;2024-03-08T10:52:39;18.13;;;9.70;;
78752;SDS011;68072;51.688;7.842;2024-03-08T10:55:05;15.55;;;8.88;;
78752;SDS011;68072;51.688;7.842;2024-03-08T10:57:38;19.42;;;9.60;;
78752;SDS011;68072;51.688;7.842;2024-03-08T11:00:07;21.55;;;10.15;;
78752;SDS011;68072;51.688;7.842;2024-03-08T11:02:37;17.95;;;10.05;;
78752;SDS011;68072;51.688;7.842;2024-03-08T11:07:56;21.65;;;10.80;;
78752;SDS011;68072;51.688;7.842;2024-03-08T11:10:22;18.90;;;9.52;;
78752;SDS011;68072;51.688;7.842;2024-03-08T11:12:49;20.70;;;9.43;;
78752;SDS011;68072;51.688;7.842;2024-03-08T11:15:15;15.48;;;7.82;;
78752;SDS011;68072;51.688;7.842;2024-03-08T11:17:44;21.58;;;11.13;;
78752;SDS011;68072;51.688;7.842;2024-03-08T11:20:11;19.23;;;9.77;;
78752;SDS011;68072;51.688;7.842;2024-03-08T11:35:51;22.77;;;10.98;;
78752;SDS011;68072;51.688;7.842;2024-03-08T11:38:17;18.35;;;9.23;;
78752;SDS011;68072;51.688;7.842;2024-03-08T11:40:46;15.45;;;9.68;;
78752;SDS011;68072;51.688;7.842;2024-03-08T11:43:15;16.45;;;8.63;;
78752;SDS011;68072;51.688;7.842;2024-03-08T11:48:07;15.53;;;8.33;;
78752;SDS011;68072;51.688;7.842;2024-03-08T11:50:34;18.33;;;8.55;;
78752;SDS011;68072;51.688;7.842;2024-03-08T11:53:00;16.77;;;9.70;;
78752;SDS011;68072;51.688;7.842;2024-03-08T11:55:27;16.17;;;9.15;;
78752;SDS011;68072;51.688;7.842;2024-03-08T11:58:01;18.02;;;8.48;;
78752;SDS011;68072;51.688;7.842;2024-03-08T12:00:28;18.13;;;9.60;;
78752;SDS011;68072;51.688;7.842;2024-03-08T12:03:03;20.83;;;9.98;;
78752;SDS011;68072;51.688;7.842;2024-03-08T12:05:30;17.75;;;9.27;;
78752;SDS011;68072;51.688;7.842;2024-03-08T12:08:04;15.30;;;7.93;;
78752;SDS011;68072;51.688;7.842;2024-03-08T12:10:53;15.18;;;8.55;;
78752;SDS011;68072;51.688;7.842;2024-03-08T12:13:36;16.20;;;9.95;;
78752;SDS011;68072;51.688;7.842;2024-03-08T12:16:06;16.77;;;10.15;;
78752;SDS011;68072;51.688;7.842;2024-03-08T12:23:33;15.75;;;9.65;;
78752;SDS011;68072;51.688;7.842;2024-03-08T12:26:35;20.60;;;10.48;;
78752;SDS011;68072;51.688;7.842;2024-03-08T12:28:53;17.95;;;10.75;;
78752;SDS011;68072;51.688;7.842;2024-03-08T12:31:19;17.88;;;8.20;;
78752;SDS011;68072;51.688;7.842;2024-03-08T12:33:51;11.07;;;6.78;;
78752;SDS011;68072;51.688;7.842;2024-03-08T12:36:17;18.27;;;10.20;;
78752;SDS011;68072;51.688;7.842;2024-03-08T12:38:45;14.93;;;8.63;;
78752;SDS011;68072;51.688;7.842;2024-03-08T12:43:45;14.50;;;9.20;;
78752;SDS011;68072;51.688;7.842;2024-03-08T12:46:15;15.75;;;8.57;;
78752;SDS011;68072;51.688;7.842;2024-03-08T12:48:45;14.85;;;9.20;;
78752;SDS011;68072;51.688;7.842;2024-03-08T12:51:16;22.65;;;10.20;;
78752;SDS011;68072;51.688;7.842;2024-03-08T12:53:45;16.95;;;9.27;;
78752;SDS011;68072;51.688;7.842;2024-03-08T12:56:20;12.50;;;7.35;;
78752;SDS011;68072;51.688;7.842;2024-03-08T12:58:57;15.63;;;8.95;;
78752;SDS011;68072;51.688;7.842;2024-03-08T13:01:44;20.73;;;9.88;;
78752;SDS011;68072;51.688;7.842;2024-03-08T13:04:33;17.08;;;9.82;;
78752;SDS011;68072;51.688;7.842;2024-03-08T13:07:03;17.67;;;8.93;;
78752;SDS011;68072;51.688;7.842;2024-03-08T13:09:49;18.75;;;9.32;;
78752;SDS011;68072;51.688;7.842;2024-03-08T13:12:38;15.20;;;8.20;;
78752;SDS011;68072;51.688;7.842;2024-03-08T13:18:30;15.35;;;9.35;;
78752;SDS011;68072;51.688;7.842;2024-03-08T13:21:24;16.85;;;9.65;;
78752;SDS011;68072;51.688;7.842;2024-03-08T13:24:01;15.65;;;8.73;;
78752;SDS011;68072;51.688;7.842;2024-03-08T13:26:29;20.90;;;9.95;;
78752;SDS011;68072;51.688;7.842;2024-03-08T13:29:03;18.95;;;9.90;;
78752;SDS011;68072;51.688;7.842;2024-03-08T13:31:39;17.92;;;9.77;;
78752;SDS011;68072;51.688;7.842;2024-03-08T13:34:23;15.80;;;9.40;;
78752;SDS011;68072;51.688;7.842;2024-03-08T13:37:27;16.88;;;8.68;;
78752;SDS011;68072;51.688;7.842;2024-03-08T13:40:20;16.45;;;9.82;;
78752;SDS011;68072;51.688;7.842;2024-03-08T13:43:26;16.45;;;9.13;;
78752;SDS011;68072;51.688;7.842;2024-03-08T13:46:13;14.52;;;9.13;;
78752;SDS011;68072;51.688;7.842;2024-03-08T13:49:05;15.85;;;8.40;;
78752;SDS011;68072;51.688;7.842;2024-03-08T13:51:47;17.27;;;9.25;;
78752;SDS011;68072;51.688;7.842;2024-03-08T13:54:34;14.85;;;8.73;;
78752;SDS011;68072;51.688;7.842;2024-03-08T13:57:26;15.85;;;8.45;;
78752;SDS011;68072;51.688;7.842;2024-03-08T14:03:54;16.52;;;9.93;;
78752;SDS011;68072;51.688;7.842;2024-03-08T14:07:15;15.32;;;8.05;;
78752;SDS011;68072;51.688;7.842;2024-03-08T14:09:51;18.50;;;8.52;;
78752;SDS011;68072;51.688;7.842;2024-03-08T14:12:37;19.23;;;9.90;;
78752;SDS011;68072;51.688;7.842;2024-03-08T14:20:54;15.93;;;9.80;;
78752;SDS011;68072;51.688;7.842;2024-03-08T14:23:21;15.80;;;10.18;;
78752;SDS011;68072;51.688;7.842;2024-03-08T14:26:00;19.52;;;11.07;;
78752;SDS011;68072;51.688;7.842;2024-03-08T14:28:39;18.83;;;10.60;;
78752;SDS011;68072;51.688;7.842;2024-03-08T14:31:35;17.63;;;10.73;;
78752;SDS011;68072;51.688;7.842;2024-03-08T14:34:29;19.58;;;11.57;;
78752;SDS011;68072;51.688;7.842;2024-03-08T14:37:09;19.58;;;10.02;;
78752;SDS011;68072;51.688;7.842;2024-03-08T14:39:40;16.23;;;10.10;;
78752;SDS011;68072;51.688;7.842;2024-03-08T14:42:10;19.25;;;11.18;;
78752;SDS011;68072;51.688;7.842;2024-03-08T14:44:45;19.05;;;11.25;;
78752;SDS011;68072;51.688;7.842;2024-03-08T14:47:16;21.85;;;9.93;;
78752;SDS011;68072;51.688;7.842;2024-03-08T14:50:01;20.13;;;11.20;;
78752;SDS011;68072;51.688;7.842;2024-03-08T14:52:28;17.55;;;10.52;;
78752;SDS011;68072;51.688;7.842;2024-03-08T14:54:58;20.83;;;11.55;;
78752;SDS011;68072;51.688;7.842;2024-03-08T14:57:28;20.60;;;10.20;;
78752;SDS011;68072;51.688;7.842;2024-03-08T15:00:03;19.00;;;9.95;;
78752;SDS011;68072;51.688;7.842;2024-03-08T15:03:09;21.23;;;10.80;;
78752;SDS011;68072;51.688;7.842;2024-03-08T15:05:40;19.17;;;9.80;;
78752;SDS011;68072;51.688;7.842;2024-03-08T15:08:19;19.27;;;9.45;;
78752;SDS011;68072;51.688;7.842;2024-03-08T15:10:57;18.80;;;10.93;;
78752;SDS011;68072;51.688;7.842;2024-03-08T15:13:25;21.25;;;10.90;;
78752;SDS011;68072;51.688;7.842;2024-03-08T15:16:08;17.17;;;10.15;;
78752;SDS011;68072;51.688;7.842;2024-03-08T15:18:40;21.27;;;10.65;;
78752;SDS011;68072;51.688;7.842;2024-03-08T15:21:13;18.25;;;9.30;;
78752;SDS011;68072;51.688;7.842;2024-03-08T15:24:11;19.40;;;10.38;;
78752;SDS011;68072;51.688;7.842;2024-03-08T15:26:42;17.23;;;9.63;;
78752;SDS011;68072;51.688;7.842;2024-03-08T15:29:12;18.23;;;9.48;;
78752;SDS011;68072;51.688;7.842;2024-03-08T15:31:52;18.70;;;9.60;;